LGKV/KVA METAR and TAF weather

Enter ICAO airport designator
Station Type Date Time Source
LGKV METAR 2020/09/28 07:50 UTC NOAA

LGKV 280750Z 03010KT 9999 FEW012 SCT030 BKN080 21/17 Q1016


Station Type Date Time Source
LGKV Decoded METAR 2020/09/28 07:50 UTC NOAA

Chrysoupoli Airport , Greece (LGKV) 40-59N 024-36E 5M
Sep 28, 2020 - 03:50 AM EDT / 2020.09.28 0750 UTC
Wind: from the NNE (030 degrees) at 12 MPH (10 KT):0
Visibility: greater than 7 mile(s):0
Sky conditions: mostly cloudy
Temperature: 69 F (21 C)
Dew Point: 62 F (17 C)
Relative Humidity: 77%
Pressure (altimeter): 30.00 in. Hg (1016 hPa)
ob: LGKV 280750Z 03010KT 9999 FEW012 SCT030 BKN080 21/17 Q1016
cycle: 8

Station Type Date Time Source
LGKV TAF 2020/09/28 06:12 UTC NOAA

TAF LGKV 280500Z 2806/2906 19010KT 9999 FEW025 BKN080
TEMPO 2806/2814 6000 RA FEW010 SCT025 BKN080 PROB30
TEMPO 2806/2811 4000 TSRA FEW008 FEW015CB BKN025 BKN070
BECMG 2815/2817 VRB03KT FEW030 PROB40
TEMPO 2903/2906 3000 BR SCT008 SCT020

Example: see airport list